sensor_id;sensor_type;location;lat;lon;timestamp;temperature;humidity
15003;DHT22;7597;53.590;10.020;2023-03-24T06:51:53;11.60;1.00
15003;DHT22;7597;53.590;10.020;2023-03-24T06:54:20;11.60;1.00
15003;DHT22;7597;53.590;10.020;2023-03-24T06:56:47;11.60;1.00
15003;DHT22;7597;53.590;10.020;2023-03-24T06:59:14;11.60;1.00
15003;DHT22;7597;53.590;10.020;2023-03-24T07:01:40;11.70;1.00
15003;DHT22;7597;53.590;10.020;2023-03-24T07:04:07;11.70;1.00
15003;DHT22;7597;53.590;10.020;2023-03-24T07:06:34;11.70;1.00
15003;DHT22;7597;53.590;10.020;2023-03-24T07:09:00;11.70;1.00
15003;DHT22;7597;53.590;10.020;2023-03-24T07:11:27;11.70;1.00
15003;DHT22;7597;53.590;10.020;2023-03-24T07:13:54;11.70;1.00
15003;DHT22;7597;53.590;10.020;2023-03-24T07:16:21;11.60;1.00
15003;DHT22;7597;53.590;10.020;2023-03-24T07:18:47;11.40;1.00
15003;DHT22;7597;53.590;10.020;2023-03-24T14:02:42;24.40;1.00
15003;DHT22;7597;53.590;10.020;2023-03-24T14:07:45;22.50;1.00
15003;DHT22;7597;53.590;10.020;2023-03-24T14:10:36;22.30;1.00
15003;DHT22;7597;53.590;10.020;2023-03-24T14:13:04;22.30;1.00
15003;DHT22;7597;53.590;10.020;2023-03-24T14:15:33;22.40;1.00
15003;DHT22;7597;53.590;10.020;2023-03-24T14:20:41;22.50;1.00
15003;DHT22;7597;53.590;10.020;2023-03-24T14:23:19;21.60;1.00
15003;DHT22;7597;53.590;10.020;2023-03-24T14:25:32;21.50;1.00
15003;DHT22;7597;53.590;10.020;2023-03-24T14:28:21;21.10;1.00
15003;DHT22;7597;53.590;10.020;2023-03-24T14:30:59;20.70;1.00
15003;DHT22;7597;53.590;10.020;2023-03-24T14:33:24;21.40;1.00
15003;DHT22;7597;53.590;10.020;2023-03-24T14:35:50;21.60;1.00
15003;DHT22;7597;53.590;10.020;2023-03-24T14:38:20;21.80;1.00
15003;DHT22;7597;53.590;10.020;2023-03-24T14:40:48;21.50;1.00
15003;DHT22;7597;53.590;10.020;2023-03-24T14:43:21;21.60;1.00
15003;DHT22;7597;53.590;10.020;2023-03-24T14:45:55;21.50;1.00
15003;DHT22;7597;53.590;10.020;2023-03-24T14:48:43;21.70;1.00
15003;DHT22;7597;53.590;10.020;2023-03-24T14:53:45;21.10;1.00
15003;DHT22;7597;53.590;10.020;2023-03-24T14:56:14;20.70;1.00
15003;DHT22;7597;53.590;10.020;2023-03-24T14:58:39;20.70;1.00
15003;DHT22;7597;53.590;10.020;2023-03-24T15:01:06;20.30;1.00
15003;DHT22;7597;53.590;10.020;2023-03-24T15:03:41;19.90;1.00
15003;DHT22;7597;53.590;10.020;2023-03-24T15:06:11;19.60;1.00
15003;DHT22;7597;53.590;10.020;2023-03-24T15:08:38;19.50;1.00
15003;DHT22;7597;53.590;10.020;2023-03-24T15:11:05;19.50;1.00
15003;DHT22;7597;53.590;10.020;2023-03-24T15:13:38;19.60;1.00
15003;DHT22;7597;53.590;10.020;2023-03-24T15:16:06;19.60;1.00
15003;DHT22;7597;53.590;10.020;2023-03-24T15:18:31;19.60;1.00
15003;DHT22;7597;53.590;10.020;2023-03-24T15:20:58;19.30;1.00
15003;DHT22;7597;53.590;10.020;2023-03-24T15:23:25;19.10;1.00
15003;DHT22;7597;53.590;10.020;2023-03-24T15:25:51;18.80;1.00
15003;DHT22;7597;53.590;10.020;2023-03-24T15:28:21;18.60;1.00
15003;DHT22;7597;53.590;10.020;2023-03-24T15:30:48;18.50;1.00
15003;DHT22;7597;53.590;10.020;2023-03-24T15:33:14;18.50;1.00
15003;DHT22;7597;53.590;10.020;2023-03-24T15:35:41;18.40;1.00
15003;DHT22;7597;53.590;10.020;2023-03-24T15:38:16;17.90;1.00
15003;DHT22;7597;53.590;10.020;2023-03-24T15:40:34;17.80;1.00
15003;DHT22;7597;53.590;10.020;2023-03-24T15:43:03;17.80;1.00
15003;DHT22;7597;53.590;10.020;2023-03-24T15:45:30;17.90;1.00
15003;DHT22;7597;53.590;10.020;2023-03-24T15:47:56;17.70;1.00
15003;DHT22;7597;53.590;10.020;2023-03-24T15:50:31;17.50;1.00
15003;DHT22;7597;53.590;10.020;2023-03-24T15:52:59;17.20;1.00
15003;DHT22;7597;53.590;10.020;2023-03-24T15:55:31;17.10;1.00
15003;DHT22;7597;53.590;10.020;2023-03-24T15:57:57;17.00;1.00
15003;DHT22;7597;53.590;10.020;2023-03-24T16:00:24;16.80;1.00
15003;DHT22;7597;53.590;10.020;2023-03-24T16:02:51;16.80;1.00
15003;DHT22;7597;53.590;10.020;2023-03-24T16:05:21;17.00;1.00
15003;DHT22;7597;53.590;10.020;2023-03-24T16:08:02;17.30;1.00
15003;DHT22;7597;53.590;10.020;2023-03-24T16:10:33;17.50;1.00
15003;DHT22;7597;53.590;10.020;2023-03-24T16:13:03;17.50;1.00
15003;DHT22;7597;53.590;10.020;2023-03-24T16:15:25;17.10;1.00
15003;DHT22;7597;53.590;10.020;2023-03-24T16:17:52;16.70;1.00
15003;DHT22;7597;53.590;10.020;2023-03-24T16:20:20;16.30;1.00
15003;DHT22;7597;53.590;10.020;2023-03-24T16:22:47;16.00;1.00
15003;DHT22;7597;53.590;10.020;2023-03-24T16:25:13;15.70;1.00
15003;DHT22;7597;53.590;10.020;2023-03-24T16:27:40;15.50;1.00
15003;DHT22;7597;53.590;10.020;2023-03-24T16:30:16;15.40;1.00
15003;DHT22;7597;53.590;10.020;2023-03-24T16:32:39;15.30;1.00
15003;DHT22;7597;53.590;10.020;2023-03-24T16:35:07;15.20;1.00
15003;DHT22;7597;53.590;10.020;2023-03-24T16:37:34;15.10;1.00
15003;DHT22;7597;53.590;10.020;2023-03-24T16:40:01;14.90;1.00
15003;DHT22;7597;53.590;10.020;2023-03-24T16:42:28;14.70;1.00
15003;DHT22;7597;53.590;10.020;2023-03-24T16:44:55;14.60;1.00
15003;DHT22;7597;53.590;10.020;2023-03-24T16:47:23;14.50;1.00
15003;DHT22;7597;53.590;10.020;2023-03-24T16:49:51;14.30;1.00
15003;DHT22;7597;53.590;10.020;2023-03-24T16:52:19;14.20;1.00
15003;DHT22;7597;53.590;10.020;2023-03-24T16:54:46;14.10;1.00
15003;DHT22;7597;53.590;10.020;2023-03-24T16:57:12;13.90;1.00
15003;DHT22;7597;53.590;10.020;2023-03-24T16:59:39;13.80;1.00
15003;DHT22;7597;53.590;10.020;2023-03-24T17:02:07;13.80;1.00
15003;DHT22;7597;53.590;10.020;2023-03-24T17:04:32;13.70;1.00
15003;DHT22;7597;53.590;10.020;2023-03-24T17:06:59;13.60;1.00
15003;DHT22;7597;53.590;10.020;2023-03-24T17:09:26;13.60;1.00
15003;DHT22;7597;53.590;10.020;2023-03-24T17:11:54;13.50;1.00
15003;DHT22;7597;53.590;10.020;2023-03-24T17:14:20;13.40;1.00
15003;DHT22;7597;53.590;10.020;2023-03-24T17:16:50;13.40;1.00
15003;DHT22;7597;53.590;10.020;2023-03-24T17:19:19;13.40;1.00
15003;DHT22;7597;53.590;10.020;2023-03-24T17:21:46;13.40;1.00
15003;DHT22;7597;53.590;10.020;2023-03-24T17:24:14;13.30;1.00
15003;DHT22;7597;53.590;10.020;2023-03-24T17:26:41;13.30;1.00
15003;DHT22;7597;53.590;10.020;2023-03-24T17:29:10;13.30;1.00
15003;DHT22;7597;53.590;10.020;2023-03-24T17:31:36;13.30;1.00
15003;DHT22;7597;53.590;10.020;2023-03-24T17:34:03;13.20;1.00
15003;DHT22;7597;53.590;10.020;2023-03-24T17:36:31;13.10;1.00
15003;DHT22;7597;53.590;10.020;2023-03-24T17:38:58;13.10;1.00
15003;DHT22;7597;53.590;10.020;2023-03-24T17:41:29;12.90;1.00
15003;DHT22;7597;53.590;10.020;2023-03-24T17:43:57;12.70;1.00
15003;DHT22;7597;53.590;10.020;2023-03-24T17:46:24;12.70;1.00
15003;DHT22;7597;53.590;10.020;2023-03-24T17:48:51;12.60;1.00
15003;DHT22;7597;53.590;10.020;2023-03-24T17:51:19;12.40;1.00
15003;DHT22;7597;53.590;10.020;2023-03-24T17:53:46;12.40;1.00
15003;DHT22;7597;53.590;10.020;2023-03-24T17:56:17;12.40;1.00
15003;DHT22;7597;53.590;10.020;2023-03-24T17:58:44;12.30;1.00
15003;DHT22;7597;53.590;10.020;2023-03-24T18:01:12;12.20;1.00
15003;DHT22;7597;53.590;10.020;2023-03-24T18:03:40;12.20;1.00
15003;DHT22;7597;53.590;10.020;2023-03-24T18:06:07;12.20;1.00
15003;DHT22;7597;53.590;10.020;2023-03-24T18:08:36;12.10;1.00
15003;DHT22;7597;53.590;10.020;2023-03-24T18:11:06;12.00;1.00
15003;DHT22;7597;53.590;10.020;2023-03-24T18:13:32;12.00;1.00
15003;DHT22;7597;53.590;10.020;2023-03-24T18:15:58;11.90;1.00
15003;DHT22;7597;53.590;10.020;2023-03-24T18:18:25;11.80;1.00
15003;DHT22;7597;53.590;10.020;2023-03-24T18:20:58;11.80;1.00
15003;DHT22;7597;53.590;10.020;2023-03-24T18:23:29;11.70;1.00
15003;DHT22;7597;53.590;10.020;2023-03-24T18:25:58;11.60;1.00
15003;DHT22;7597;53.590;10.020;2023-03-24T18:28:25;11.60;1.00
15003;DHT22;7597;53.590;10.020;2023-03-24T18:30:53;11.60;1.00
15003;DHT22;7597;53.590;10.020;2023-03-24T18:33:19;11.50;1.00
15003;DHT22;7597;53.590;10.020;2023-03-24T18:35:50;11.50;1.00
15003;DHT22;7597;53.590;10.020;2023-03-24T18:38:16;11.40;1.00
15003;DHT22;7597;53.590;10.020;2023-03-24T18:40:42;11.40;1.00
15003;DHT22;7597;53.590;10.020;2023-03-24T18:43:09;11.40;1.00
15003;DHT22;7597;53.590;10.020;2023-03-24T18:45:36;11.30;1.00
15003;DHT22;7597;53.590;10.020;2023-03-24T18:48:03;11.20;1.00
15003;DHT22;7597;53.590;10.020;2023-03-24T18:50:29;11.20;1.00
15003;DHT22;7597;53.590;10.020;2023-03-24T18:52:56;11.20;1.00
15003;DHT22;7597;53.590;10.020;2023-03-24T18:55:23;11.20;1.00
15003;DHT22;7597;53.590;10.020;2023-03-24T18:57:50;11.10;1.00
15003;DHT22;7597;53.590;10.020;2023-03-24T19:00:17;11.00;1.00
15003;DHT22;7597;53.590;10.020;2023-03-24T19:02:43;11.00;1.00
15003;DHT22;7597;53.590;10.020;2023-03-24T19:05:11;11.00;1.00
15003;DHT22;7597;53.590;10.020;2023-03-24T19:07:38;10.90;1.00
15003;DHT22;7597;53.590;10.020;2023-03-24T19:10:05;10.90;1.00
15003;DHT22;7597;53.590;10.020;2023-03-24T19:12:32;10.90;1.00
15003;DHT22;7597;53.590;10.020;2023-03-24T19:14:59;10.80;1.00
15003;DHT22;7597;53.590;10.020;2023-03-24T19:17:27;10.70;1.00
15003;DHT22;7597;53.590;10.020;2023-03-24T19:19:54;10.60;1.00
15003;DHT22;7597;53.590;10.020;2023-03-24T19:22:21;10.60;1.00
15003;DHT22;7597;53.590;10.020;2023-03-24T19:24:48;10.60;1.00
15003;DHT22;7597;53.590;10.020;2023-03-24T19:27:15;10.60;1.00
15003;DHT22;7597;53.590;10.020;2023-03-24T19:29:44;10.60;1.00
15003;DHT22;7597;53.590;10.020;2023-03-24T19:32:18;10.60;1.00
15003;DHT22;7597;53.590;10.020;2023-03-24T19:34:45;10.50;1.00
15003;DHT22;7597;53.590;10.020;2023-03-24T19:37:19;10.40;1.00
15003;DHT22;7597;53.590;10.020;2023-03-24T19:39:46;10.40;1.00
15003;DHT22;7597;53.590;10.020;2023-03-24T19:42:13;10.40;1.00
15003;DHT22;7597;53.590;10.020;2023-03-24T19:44:41;10.40;1.00
15003;DHT22;7597;53.590;10.020;2023-03-24T19:47:09;10.40;1.00
15003;DHT22;7597;53.590;10.020;2023-03-24T19:49:36;10.40;1.00
15003;DHT22;7597;53.590;10.020;2023-03-24T19:52:03;10.40;1.00
15003;DHT22;7597;53.590;10.020;2023-03-24T19:54:30;10.40;1.00
15003;DHT22;7597;53.590;10.020;2023-03-24T19:56:57;10.30;1.00
15003;DHT22;7597;53.590;10.020;2023-03-24T19:59:24;10.20;1.00
15003;DHT22;7597;53.590;10.020;2023-03-24T20:01:50;10.10;1.00
15003;DHT22;7597;53.590;10.020;2023-03-24T20:04:17;10.20;1.00
15003;DHT22;7597;53.590;10.020;2023-03-24T20:06:44;10.10;1.00
15003;DHT22;7597;53.590;10.020;2023-03-24T20:09:11;10.20;1.00
15003;DHT22;7597;53.590;10.020;2023-03-24T20:11:37;10.10;1.00
15003;DHT22;7597;53.590;10.020;2023-03-24T20:14:04;10.20;1.00
15003;DHT22;7597;53.590;10.020;2023-03-24T20:16:30;10.20;1.00
15003;DHT22;7597;53.590;10.020;2023-03-24T20:18:57;10.20;1.00
15003;DHT22;7597;53.590;10.020;2023-03-24T20:21:24;10.20;1.00
15003;DHT22;7597;53.590;10.020;2023-03-24T20:23:51;10.20;1.00
15003;DHT22;7597;53.590;10.020;2023-03-24T20:26:18;10.20;1.00
15003;DHT22;7597;53.590;10.020;2023-03-24T20:28:47;10.20;1.00
15003;DHT22;7597;53.590;10.020;2023-03-24T20:31:13;10.20;1.00
15003;DHT22;7597;53.590;10.020;2023-03-24T20:33:39;10.10;1.00
15003;DHT22;7597;53.590;10.020;2023-03-24T20:36:06;10.10;1.00
15003;DHT22;7597;53.590;10.020;2023-03-24T20:38:33;10.10;1.00
15003;DHT22;7597;53.590;10.020;2023-03-24T20:41:01;10.10;1.00
15003;DHT22;7597;53.590;10.020;2023-03-24T20:43:27;10.20;1.00
15003;DHT22;7597;53.590;10.020;2023-03-24T20:45:55;10.20;1.00
15003;DHT22;7597;53.590;10.020;2023-03-24T20:48:21;10.30;1.00
15003;DHT22;7597;53.590;10.020;2023-03-24T20:50:48;10.30;1.00
15003;DHT22;7597;53.590;10.020;2023-03-24T20:53:14;10.30;1.00
15003;DHT22;7597;53.590;10.020;2023-03-24T20:55:42;10.20;1.00
15003;DHT22;7597;53.590;10.020;2023-03-24T20:58:11;10.10;1.00
15003;DHT22;7597;53.590;10.020;2023-03-24T21:00:38;10.10;1.00
15003;DHT22;7597;53.590;10.020;2023-03-24T21:03:05;10.00;1.00
15003;DHT22;7597;53.590;10.020;2023-03-24T21:05:34;10.50;1.00
15003;DHT22;7597;53.590;10.020;2023-03-24T21:08:01;9.70;1.00
15003;DHT22;7597;53.590;10.020;2023-03-24T21:10:28;9.70;1.00
15003;DHT22;7597;53.590;10.020;2023-03-24T21:12:55;9.70;1.00
15003;DHT22;7597;53.590;10.020;2023-03-24T21:15:22;9.60;1.00
15003;DHT22;7597;53.590;10.020;2023-03-24T21:17:49;9.60;1.00
15003;DHT22;7597;53.590;10.020;2023-03-24T21:20:16;9.60;1.00
15003;DHT22;7597;53.590;10.020;2023-03-24T21:22:46;9.50;1.00
15003;DHT22;7597;53.590;10.020;2023-03-24T21:25:13;9.40;1.00
15003;DHT22;7597;53.590;10.020;2023-03-24T21:27:40;9.40;1.00
15003;DHT22;7597;53.590;10.020;2023-03-24T21:30:07;9.40;1.00
15003;DHT22;7597;53.590;10.020;2023-03-24T21:32:35;9.30;1.00
15003;DHT22;7597;53.590;10.020;2023-03-24T21:35:03;9.30;1.00
15003;DHT22;7597;53.590;10.020;2023-03-24T21:37:30;9.20;1.00
15003;DHT22;7597;53.590;10.020;2023-03-24T21:39:57;9.20;1.00
15003;DHT22;7597;53.590;10.020;2023-03-24T21:42:24;9.20;1.00
15003;DHT22;7597;53.590;10.020;2023-03-24T21:44:51;9.20;1.00
15003;DHT22;7597;53.590;10.020;2023-03-24T21:47:21;9.20;1.00
15003;DHT22;7597;53.590;10.020;2023-03-24T21:49:48;9.20;1.00
15003;DHT22;7597;53.590;10.020;2023-03-24T21:52:15;9.20;1.00
15003;DHT22;7597;53.590;10.020;2023-03-24T21:54:44;9.20;1.00
15003;DHT22;7597;53.590;10.020;2023-03-24T21:57:16;9.20;1.00
15003;DHT22;7597;53.590;10.020;2023-03-24T21:59:44;9.20;1.00
15003;DHT22;7597;53.590;10.020;2023-03-24T22:02:13;9.20;1.00
15003;DHT22;7597;53.590;10.020;2023-03-24T22:04:40;9.20;1.00
15003;DHT22;7597;53.590;10.020;2023-03-24T22:07:07;9.30;1.00
15003;DHT22;7597;53.590;10.020;2023-03-24T22:09:35;9.20;1.00
15003;DHT22;7597;53.590;10.020;2023-03-24T22:12:04;9.30;1.00
15003;DHT22;7597;53.590;10.020;2023-03-24T22:14:31;9.30;1.00
15003;DHT22;7597;53.590;10.020;2023-03-24T22:16:58;9.30;1.00
15003;DHT22;7597;53.590;10.020;2023-03-24T22:19:28;9.20;1.00
15003;DHT22;7597;53.590;10.020;2023-03-24T22:21:56;9.20;1.00
15003;DHT22;7597;53.590;10.020;2023-03-24T22:24:29;9.20;1.00
15003;DHT22;7597;53.590;10.020;2023-03-24T22:26:56;9.20;1.00
15003;DHT22;7597;53.590;10.020;2023-03-24T22:29:24;9.10;1.00
15003;DHT22;7597;53.590;10.020;2023-03-24T22:31:51;9.10;11.00
15003;DHT22;7597;53.590;10.020;2023-03-24T22:34:18;9.00;13.60
15003;DHT22;7597;53.590;10.020;2023-03-24T22:36:46;9.00;61.30
15003;DHT22;7597;53.590;10.020;2023-03-24T22:39:13;9.10;92.40
15003;DHT22;7597;53.590;10.020;2023-03-24T22:41:39;9.10;92.70
15003;DHT22;7597;53.590;10.020;2023-03-24T22:44:06;9.00;94.30
15003;DHT22;7597;53.590;10.020;2023-03-24T22:46:33;9.00;97.80
15003;DHT22;7597;53.590;10.020;2023-03-24T22:49:00;8.90;99.90
15003;DHT22;7597;53.590;10.020;2023-03-24T22:51:27;8.90;99.90
15003;DHT22;7597;53.590;10.020;2023-03-24T22:53:54;8.90;99.90
15003;DHT22;7597;53.590;10.020;2023-03-24T22:56:20;9.00;99.90
